Aeroporto :
LOGIN :

Iscrizione | Disclaimer

   EN    FR    IT 

 










Sommario :    VFR   VFR Marginale   IFR   IFR Intensivo   IFR Molto Intensivo
Visibilità : 
Base nubi : 
>= 8 km
>= 3000ft
5 / 8 km
1000 / 3000 ft
1500m / 5 km
500 / 1000 ft
800 / 1500m
200 / 500 ft
< 800m
< 200 ft
Simboli :   Temporali  Nebbia  Neve Forte  Precipitazioni Forti  Vento > 20 kt
SIGMETs :   Varie  Temporali  Ghiacco  Turbolenza  Onda orograficha  Ceneri Vulcaniche






- Altitudine del aeroporto : 16 ft
- Codice IATA : EAS


LESO - San Sebastian Fuenterrabia

ULTIMO METAR :
  • 261330Z 03004KT 350V060 9999 FEW040 15/08 Q1021

METARs OBSOLETI :
  • 261300Z 04005KT 010V070 9999 FEW040 14/08 Q1021
  • 261230Z 03004KT 350V080 9999 FEW040 14/08 Q1021
  • 261200Z VRB01KT 9999 FEW040 15/06 Q1021
  • 261130Z 18004KT 140V210 CAVOK 14/09 Q1022
  • 261100Z 19004KT 170V240 CAVOK 13/09 Q1022

TAF TAF LESO
Valido dal 26 a 12 ore il 27 a 12 ore UTC


261100Z 2612/2712 VRB05KT CAVOK TX15/2615Z TN06/2702Z
TEMPO 2702/2712 22010KT



MetMap, La meteo Aeronautica in un colpo d'occhio ! - Copyright ORBIFLY Dicembre 2007 - Disclaimer

ORBIFLY MET'MAP TEAM :

Programmazione e sviluppo : Alexandra Zaïnal
Concezione : Baudouin d'Aumeries
Aiuto per la programmazione : Marc-Olivier Méhu
Supporto tecnico e logistico : Manuel Goepfert
Aiuto per la traduzione : Arnaldo La Scala

Contatto : metmap@orbifly.com




FONTI E CREDITI :

   NOAA